sensor_id;sensor_type;location;lat;lon;timestamp;P1;durP1;ratioP1;P2;durP2;ratioP2
73421;SDS011;61637;47.760;-122.022;2022-10-12T00:00:00;11.3;;;1.6;;
73421;SDS011;61637;47.760;-122.022;2022-10-12T00:02:01;7.8;;;1.7;;
73421;SDS011;61637;47.760;-122.022;2022-10-12T00:04:01;10.0;;;1.9;;
73421;SDS011;61637;47.760;-122.022;2022-10-12T00:06:03;8.1;;;1.5;;
73421;SDS011;61637;47.760;-122.022;2022-10-12T00:08:00;9.8;;;2.0;;
73421;SDS011;61637;47.760;-122.022;2022-10-12T00:10:02;9.4;;;1.9;;
73421;SDS011;61637;47.760;-122.022;2022-10-12T00:12:00;8.0;;;1.7;;
73421;SDS011;61637;47.760;-122.022;2022-10-12T00:14:00;8.7;;;1.9;;
73421;SDS011;61637;47.760;-122.022;2022-10-12T00:16:03;9.7;;;1.6;;
73421;SDS011;61637;47.760;-122.022;2022-10-12T00:18:00;7.7;;;1.7;;
73421;SDS011;61637;47.760;-122.022;2022-10-12T00:20:01;8.0;;;1.6;;
73421;SDS011;61637;47.760;-122.022;2022-10-12T00:22:01;8.9;;;2.0;;
73421;SDS011;61637;47.760;-122.022;2022-10-12T00:24:00;8.8;;;1.6;;
73421;SDS011;61637;47.760;-122.022;2022-10-12T00:26:02;9.0;;;1.5;;
73421;SDS011;61637;47.760;-122.022;2022-10-12T00:28:00;11.7;;;1.8;;
73421;SDS011;61637;47.760;-122.022;2022-10-12T00:30:00;10.8;;;1.8;;
73421;SDS011;61637;47.760;-122.022;2022-10-12T00:32:00;11.1;;;1.5;;
73421;SDS011;61637;47.760;-122.022;2022-10-12T00:34:02;8.1;;;1.6;;
73421;SDS011;61637;47.760;-122.022;2022-10-12T00:36:11;9.6;;;1.6;;
73421;SDS011;61637;47.760;-122.022;2022-10-12T00:38:00;9.3;;;1.7;;
73421;SDS011;61637;47.760;-122.022;2022-10-12T00:40:01;8.8;;;1.6;;
73421;SDS011;61637;47.760;-122.022;2022-10-12T00:42:00;7.1;;;1.4;;
73421;SDS011;61637;47.760;-122.022;2022-10-12T00:44:01;10.0;;;1.7;;
73421;SDS011;61637;47.760;-122.022;2022-10-12T00:46:04;10.9;;;1.8;;
73421;SDS011;61637;47.760;-122.022;2022-10-12T00:48:00;8.8;;;1.7;;
73421;SDS011;61637;47.760;-122.022;2022-10-12T00:50:04;8.5;;;1.6;;
73421;SDS011;61637;47.760;-122.022;2022-10-12T00:52:05;9.3;;;1.6;;
73421;SDS011;61637;47.760;-122.022;2022-10-12T00:54:02;8.8;;;1.5;;
73421;SDS011;61637;47.760;-122.022;2022-10-12T00:56:05;11.1;;;1.6;;
73421;SDS011;61637;47.760;-122.022;2022-10-12T00:58:02;10.6;;;1.7;;
73421;SDS011;61637;47.760;-122.022;2022-10-12T01:00:05;10.9;;;1.9;;
73421;SDS011;61637;47.760;-122.022;2022-10-12T01:02:01;9.8;;;1.7;;
73421;SDS011;61637;47.760;-122.022;2022-10-12T01:04:01;10.7;;;2.0;;
73421;SDS011;61637;47.760;-122.022;2022-10-12T01:06:00;11.3;;;1.8;;
73421;SDS011;61637;47.760;-122.022;2022-10-12T01:08:01;13.4;;;1.7;;
73421;SDS011;61637;47.760;-122.022;2022-10-12T01:10:01;8.9;;;1.4;;
73421;SDS011;61637;47.760;-122.022;2022-10-12T01:12:02;11.1;;;1.7;;
73421;SDS011;61637;47.760;-122.022;2022-10-12T01:14:01;11.1;;;1.7;;
73421;SDS011;61637;47.760;-122.022;2022-10-12T01:16:07;16.0;;;2.1;;
73421;SDS011;61637;47.760;-122.022;2022-10-12T01:18:07;16.1;;;2.3;;
73421;SDS011;61637;47.760;-122.022;2022-10-12T01:22:04;17.0;;;2.1;;
73421;SDS011;61637;47.760;-122.022;2022-10-12T01:26:15;9.0;;;1.5;;
73421;SDS011;61637;47.760;-122.022;2022-10-12T01:28:09;10.4;;;1.6;;
73421;SDS011;61637;47.760;-122.022;2022-10-12T01:30:07;10.4;;;1.6;;
73421;SDS011;61637;47.760;-122.022;2022-10-12T01:32:05;13.3;;;1.9;;
73421;SDS011;61637;47.760;-122.022;2022-10-12T01:34:08;11.1;;;1.7;;
73421;SDS011;61637;47.760;-122.022;2022-10-12T01:36:05;9.2;;;1.8;;
73421;SDS011;61637;47.760;-122.022;2022-10-12T01:38:06;7.4;;;1.6;;
73421;SDS011;61637;47.760;-122.022;2022-10-12T01:40:04;11.2;;;1.8;;
73421;SDS011;61637;47.760;-122.022;2022-10-12T01:42:05;8.3;;;1.8;;
73421;SDS011;61637;47.760;-122.022;2022-10-12T01:44:01;10.4;;;1.6;;
73421;SDS011;61637;47.760;-122.022;2022-10-12T01:48:02;9.3;;;1.8;;
73421;SDS011;61637;47.760;-122.022;2022-10-12T01:50:02;10.1;;;1.7;;
73421;SDS011;61637;47.760;-122.022;2022-10-12T01:52:11;8.5;;;1.5;;
73421;SDS011;61637;47.760;-122.022;2022-10-12T01:54:09;7.4;;;1.6;;
73421;SDS011;61637;47.760;-122.022;2022-10-12T01:56:08;10.9;;;1.9;;
73421;SDS011;61637;47.760;-122.022;2022-10-12T01:58:14;10.9;;;1.8;;
73421;SDS011;61637;47.760;-122.022;2022-10-12T02:00:04;9.3;;;2.0;;
73421;SDS011;61637;47.760;-122.022;2022-10-12T02:02:09;9.8;;;1.9;;
73421;SDS011;61637;47.760;-122.022;2022-10-12T02:04:09;8.8;;;2.0;;
73421;SDS011;61637;47.760;-122.022;2022-10-12T02:06:05;12.2;;;1.8;;
73421;SDS011;61637;47.760;-122.022;2022-10-12T02:08:06;9.0;;;1.7;;
73421;SDS011;61637;47.760;-122.022;2022-10-12T02:10:02;10.0;;;2.1;;
73421;SDS011;61637;47.760;-122.022;2022-10-12T02:12:04;12.7;;;2.2;;
73421;SDS011;61637;47.760;-122.022;2022-10-12T02:14:05;9.0;;;1.8;;
73421;SDS011;61637;47.760;-122.022;2022-10-12T02:16:05;9.1;;;1.8;;
73421;SDS011;61637;47.760;-122.022;2022-10-12T02:18:04;9.6;;;2.0;;
73421;SDS011;61637;47.760;-122.022;2022-10-12T02:20:02;10.8;;;2.1;;
73421;SDS011;61637;47.760;-122.022;2022-10-12T02:22:03;9.2;;;1.8;;
73421;SDS011;61637;47.760;-122.022;2022-10-12T02:24:04;11.4;;;2.1;;
73421;SDS011;61637;47.760;-122.022;2022-10-12T02:26:01;10.9;;;1.9;;
73421;SDS011;61637;47.760;-122.022;2022-10-12T02:28:06;12.1;;;2.0;;
73421;SDS011;61637;47.760;-122.022;2022-10-12T02:30:02;10.1;;;1.9;;
73421;SDS011;61637;47.760;-122.022;2022-10-12T02:32:04;9.5;;;2.5;;
73421;SDS011;61637;47.760;-122.022;2022-10-12T02:34:06;9.3;;;2.3;;
73421;SDS011;61637;47.760;-122.022;2022-10-12T02:36:05;9.6;;;2.6;;
73421;SDS011;61637;47.760;-122.022;2022-10-12T02:38:03;12.7;;;2.0;;
73421;SDS011;61637;47.760;-122.022;2022-10-12T02:40:08;15.8;;;2.1;;
73421;SDS011;61637;47.760;-122.022;2022-10-12T02:42:06;12.7;;;1.9;;
73421;SDS011;61637;47.760;-122.022;2022-10-12T02:44:03;11.0;;;2.0;;
73421;SDS011;61637;47.760;-122.022;2022-10-12T02:46:01;8.8;;;1.7;;
73421;SDS011;61637;47.760;-122.022;2022-10-12T02:48:01;12.0;;;2.0;;
73421;SDS011;61637;47.760;-122.022;2022-10-12T02:50:02;9.6;;;2.0;;
73421;SDS011;61637;47.760;-122.022;2022-10-12T02:52:02;11.1;;;1.8;;
73421;SDS011;61637;47.760;-122.022;2022-10-12T02:54:01;13.4;;;2.0;;
73421;SDS011;61637;47.760;-122.022;2022-10-12T02:56:05;10.1;;;1.6;;
73421;SDS011;61637;47.760;-122.022;2022-10-12T02:58:00;8.4;;;2.0;;
73421;SDS011;61637;47.760;-122.022;2022-10-12T03:00:01;9.0;;;1.9;;
73421;SDS011;61637;47.760;-122.022;2022-10-12T03:02:00;11.1;;;2.3;;
73421;SDS011;61637;47.760;-122.022;2022-10-12T03:04:00;9.4;;;2.0;;
73421;SDS011;61637;47.760;-122.022;2022-10-12T03:06:00;11.0;;;2.0;;
73421;SDS011;61637;47.760;-122.022;2022-10-12T03:08:02;10.0;;;1.9;;
73421;SDS011;61637;47.760;-122.022;2022-10-12T03:10:00;8.6;;;1.8;;
73421;SDS011;61637;47.760;-122.022;2022-10-12T03:12:01;10.6;;;2.0;;
73421;SDS011;61637;47.760;-122.022;2022-10-12T03:14:00;11.1;;;2.2;;
73421;SDS011;61637;47.760;-122.022;2022-10-12T03:16:01;11.9;;;2.2;;
73421;SDS011;61637;47.760;-122.022;2022-10-12T03:18:00;11.6;;;2.1;;
73421;SDS011;61637;47.760;-122.022;2022-10-12T03:20:01;12.3;;;2.0;;
73421;SDS011;61637;47.760;-122.022;2022-10-12T03:22:00;12.9;;;2.0;;
73421;SDS011;61637;47.760;-122.022;2022-10-12T03:24:01;7.0;;;1.8;;
73421;SDS011;61637;47.760;-122.022;2022-10-12T03:26:01;8.9;;;2.0;;
73421;SDS011;61637;47.760;-122.022;2022-10-12T03:28:00;10.9;;;2.1;;
73421;SDS011;61637;47.760;-122.022;2022-10-12T03:30:00;9.3;;;2.1;;
73421;SDS011;61637;47.760;-122.022;2022-10-12T03:32:01;9.6;;;2.1;;
73421;SDS011;61637;47.760;-122.022;2022-10-12T03:34:00;10.1;;;1.8;;
73421;SDS011;61637;47.760;-122.022;2022-10-12T03:36:01;9.8;;;1.9;;
73421;SDS011;61637;47.760;-122.022;2022-10-12T03:38:00;10.9;;;2.2;;
73421;SDS011;61637;47.760;-122.022;2022-10-12T03:40:01;10.8;;;2.3;;
73421;SDS011;61637;47.760;-122.022;2022-10-12T03:42:01;11.2;;;1.9;;
73421;SDS011;61637;47.760;-122.022;2022-10-12T03:44:01;13.5;;;2.4;;
73421;SDS011;61637;47.760;-122.022;2022-10-12T03:46:00;9.8;;;1.9;;
73421;SDS011;61637;47.760;-122.022;2022-10-12T03:48:03;9.4;;;2.0;;
73421;SDS011;61637;47.760;-122.022;2022-10-12T03:50:00;11.6;;;2.1;;
73421;SDS011;61637;47.760;-122.022;2022-10-12T03:52:00;12.9;;;2.1;;
73421;SDS011;61637;47.760;-122.022;2022-10-12T03:54:01;8.8;;;1.9;;
73421;SDS011;61637;47.760;-122.022;2022-10-12T03:56:02;12.1;;;1.8;;
73421;SDS011;61637;47.760;-122.022;2022-10-12T03:58:00;14.2;;;2.2;;
73421;SDS011;61637;47.760;-122.022;2022-10-12T04:00:01;12.8;;;2.1;;
73421;SDS011;61637;47.760;-122.022;2022-10-12T04:02:00;13.7;;;2.0;;
73421;SDS011;61637;47.760;-122.022;2022-10-12T04:04:00;14.4;;;2.3;;
73421;SDS011;61637;47.760;-122.022;2022-10-12T04:06:00;9.6;;;1.9;;
73421;SDS011;61637;47.760;-122.022;2022-10-12T04:08:01;11.8;;;2.1;;
73421;SDS011;61637;47.760;-122.022;2022-10-12T04:10:00;11.4;;;2.2;;
73421;SDS011;61637;47.760;-122.022;2022-10-12T04:12:01;11.3;;;2.0;;
73421;SDS011;61637;47.760;-122.022;2022-10-12T04:14:00;11.6;;;2.2;;
73421;SDS011;61637;47.760;-122.022;2022-10-12T04:16:02;12.3;;;2.2;;
73421;SDS011;61637;47.760;-122.022;2022-10-12T04:18:00;14.7;;;2.0;;
73421;SDS011;61637;47.760;-122.022;2022-10-12T04:20:01;15.3;;;2.4;;
73421;SDS011;61637;47.760;-122.022;2022-10-12T04:22:00;10.7;;;2.3;;
73421;SDS011;61637;47.760;-122.022;2022-10-12T04:24:01;12.3;;;2.3;;
73421;SDS011;61637;47.760;-122.022;2022-10-12T04:28:09;11.1;;;2.2;;
73421;SDS011;61637;47.760;-122.022;2022-10-12T04:30:01;14.1;;;2.6;;
73421;SDS011;61637;47.760;-122.022;2022-10-12T04:32:01;15.7;;;2.4;;
73421;SDS011;61637;47.760;-122.022;2022-10-12T04:34:00;17.3;;;2.5;;
73421;SDS011;61637;47.760;-122.022;2022-10-12T04:36:00;12.2;;;2.1;;
73421;SDS011;61637;47.760;-122.022;2022-10-12T04:38:01;10.3;;;2.1;;
73421;SDS011;61637;47.760;-122.022;2022-10-12T04:40:01;14.6;;;2.5;;
73421;SDS011;61637;47.760;-122.022;2022-10-12T04:42:00;14.7;;;2.4;;
73421;SDS011;61637;47.760;-122.022;2022-10-12T04:44:01;16.7;;;2.3;;
73421;SDS011;61637;47.760;-122.022;2022-10-12T04:46:00;14.3;;;2.2;;
73421;SDS011;61637;47.760;-122.022;2022-10-12T04:48:00;14.2;;;2.2;;
73421;SDS011;61637;47.760;-122.022;2022-10-12T04:50:00;12.3;;;2.3;;
73421;SDS011;61637;47.760;-122.022;2022-10-12T04:52:00;11.6;;;2.2;;
73421;SDS011;61637;47.760;-122.022;2022-10-12T04:54:00;13.9;;;2.3;;
73421;SDS011;61637;47.760;-122.022;2022-10-12T04:56:01;12.3;;;2.3;;
73421;SDS011;61637;47.760;-122.022;2022-10-12T04:58:01;12.3;;;2.2;;
73421;SDS011;61637;47.760;-122.022;2022-10-12T05:00:00;14.9;;;2.4;;
73421;SDS011;61637;47.760;-122.022;2022-10-12T05:02:00;12.2;;;2.7;;
73421;SDS011;61637;47.760;-122.022;2022-10-12T05:04:01;10.0;;;2.1;;
73421;SDS011;61637;47.760;-122.022;2022-10-12T05:06:01;10.5;;;2.2;;
73421;SDS011;61637;47.760;-122.022;2022-10-12T05:08:01;10.8;;;2.1;;
73421;SDS011;61637;47.760;-122.022;2022-10-12T05:10:01;13.3;;;2.5;;
73421;SDS011;61637;47.760;-122.022;2022-10-12T05:12:01;10.5;;;2.2;;
73421;SDS011;61637;47.760;-122.022;2022-10-12T05:14:00;13.0;;;2.4;;
73421;SDS011;61637;47.760;-122.022;2022-10-12T05:16:01;11.0;;;2.4;;
73421;SDS011;61637;47.760;-122.022;2022-10-12T05:18:00;17.1;;;2.4;;
73421;SDS011;61637;47.760;-122.022;2022-10-12T05:20:01;13.2;;;2.5;;
73421;SDS011;61637;47.760;-122.022;2022-10-12T05:22:01;11.4;;;2.2;;
73421;SDS011;61637;47.760;-122.022;2022-10-12T05:24:01;11.9;;;2.2;;
73421;SDS011;61637;47.760;-122.022;2022-10-12T05:26:00;10.0;;;2.0;;
73421;SDS011;61637;47.760;-122.022;2022-10-12T05:28:01;13.6;;;2.5;;
73421;SDS011;61637;47.760;-122.022;2022-10-12T05:30:00;14.3;;;2.0;;
73421;SDS011;61637;47.760;-122.022;2022-10-12T05:32:01;11.9;;;2.2;;
73421;SDS011;61637;47.760;-122.022;2022-10-12T05:34:01;12.2;;;2.2;;
73421;SDS011;61637;47.760;-122.022;2022-10-12T05:36:00;10.5;;;2.2;;
73421;SDS011;61637;47.760;-122.022;2022-10-12T05:38:01;11.0;;;2.1;;
73421;SDS011;61637;47.760;-122.022;2022-10-12T05:40:01;11.2;;;2.1;;
73421;SDS011;61637;47.760;-122.022;2022-10-12T05:42:01;15.9;;;2.4;;
73421;SDS011;61637;47.760;-122.022;2022-10-12T05:44:01;17.6;;;2.9;;
73421;SDS011;61637;47.760;-122.022;2022-10-12T05:46:01;11.9;;;2.6;;
73421;SDS011;61637;47.760;-122.022;2022-10-12T05:48:00;11.7;;;2.5;;
73421;SDS011;61637;47.760;-122.022;2022-10-12T05:50:00;13.6;;;2.5;;
73421;SDS011;61637;47.760;-122.022;2022-10-12T05:52:01;15.8;;;2.6;;
73421;SDS011;61637;47.760;-122.022;2022-10-12T05:54:00;12.3;;;2.5;;
73421;SDS011;61637;47.760;-122.022;2022-10-12T05:56:01;12.3;;;2.5;;
73421;SDS011;61637;47.760;-122.022;2022-10-12T05:58:00;13.8;;;2.4;;
73421;SDS011;61637;47.760;-122.022;2022-10-12T06:00:01;14.4;;;2.5;;
73421;SDS011;61637;47.760;-122.022;2022-10-12T06:02:01;13.1;;;2.2;;
73421;SDS011;61637;47.760;-122.022;2022-10-12T06:04:00;13.5;;;2.5;;
73421;SDS011;61637;47.760;-122.022;2022-10-12T06:06:01;13.5;;;3.0;;
73421;SDS011;61637;47.760;-122.022;2022-10-12T06:08:01;10.9;;;2.6;;
73421;SDS011;61637;47.760;-122.022;2022-10-12T06:10:01;unavailable;;;unavailable;;
73421;SDS011;61637;47.760;-122.022;2022-10-12T06:12:00;unknown;;;unknown;;
73421;SDS011;61637;47.760;-122.022;2022-10-12T06:14:00;11.6;;;2.4;;
73421;SDS011;61637;47.760;-122.022;2022-10-12T06:16:01;12.1;;;2.0;;
73421;SDS011;61637;47.760;-122.022;2022-10-12T06:18:01;12.1;;;2.5;;
73421;SDS011;61637;47.760;-122.022;2022-10-12T06:20:01;14.0;;;2.5;;
73421;SDS011;61637;47.760;-122.022;2022-10-12T06:22:01;15.4;;;2.5;;
73421;SDS011;61637;47.760;-122.022;2022-10-12T06:24:01;15.4;;;2.6;;
73421;SDS011;61637;47.760;-122.022;2022-10-12T06:26:00;12.1;;;2.2;;
73421;SDS011;61637;47.760;-122.022;2022-10-12T06:28:00;12.2;;;2.6;;
73421;SDS011;61637;47.760;-122.022;2022-10-12T06:30:01;14.2;;;2.6;;
73421;SDS011;61637;47.760;-122.022;2022-10-12T06:32:01;13.8;;;2.6;;
73421;SDS011;61637;47.760;-122.022;2022-10-12T06:34:00;14.7;;;3.0;;
73421;SDS011;61637;47.760;-122.022;2022-10-12T06:36:00;10.8;;;2.3;;
73421;SDS011;61637;47.760;-122.022;2022-10-12T06:38:01;11.3;;;2.6;;
73421;SDS011;61637;47.760;-122.022;2022-10-12T06:40:01;12.5;;;2.3;;
73421;SDS011;61637;47.760;-122.022;2022-10-12T06:42:00;15.1;;;2.5;;
73421;SDS011;61637;47.760;-122.022;2022-10-12T06:44:01;13.2;;;2.6;;
73421;SDS011;61637;47.760;-122.022;2022-10-12T06:46:02;11.1;;;2.5;;
73421;SDS011;61637;47.760;-122.022;2022-10-12T06:48:00;14.5;;;2.5;;
73421;SDS011;61637;47.760;-122.022;2022-10-12T06:50:01;13.3;;;2.5;;
73421;SDS011;61637;47.760;-122.022;2022-10-12T06:52:00;11.9;;;2.3;;
73421;SDS011;61637;47.760;-122.022;2022-10-12T06:54:00;15.3;;;2.7;;
73421;SDS011;61637;47.760;-122.022;2022-10-12T06:56:04;11.5;;;2.4;;
73421;SDS011;61637;47.760;-122.022;2022-10-12T06:58:00;16.0;;;2.5;;
73421;SDS011;61637;47.760;-122.022;2022-10-12T07:00:00;11.8;;;2.4;;
73421;SDS011;61637;47.760;-122.022;2022-10-12T07:02:00;17.1;;;2.8;;
73421;SDS011;61637;47.760;-122.022;2022-10-12T07:04:01;15.8;;;2.8;;
73421;SDS011;61637;47.760;-122.022;2022-10-12T07:06:04;17.0;;;2.4;;
73421;SDS011;61637;47.760;-122.022;2022-10-12T07:08:01;10.9;;;2.6;;
73421;SDS011;61637;47.760;-122.022;2022-10-12T07:10:02;14.7;;;2.6;;
73421;SDS011;61637;47.760;-122.022;2022-10-12T07:12:01;12.3;;;2.2;;
73421;SDS011;61637;47.760;-122.022;2022-10-12T07:14:00;13.0;;;2.4;;
73421;SDS011;61637;47.760;-122.022;2022-10-12T07:16:02;14.5;;;2.4;;
73421;SDS011;61637;47.760;-122.022;2022-10-12T07:18:02;13.3;;;2.4;;
73421;SDS011;61637;47.760;-122.022;2022-10-12T07:20:01;10.1;;;2.5;;
73421;SDS011;61637;47.760;-122.022;2022-10-12T07:22:01;14.7;;;2.4;;
73421;SDS011;61637;47.760;-122.022;2022-10-12T07:24:01;11.8;;;2.3;;
73421;SDS011;61637;47.760;-122.022;2022-10-12T07:26:01;9.0;;;2.0;;
73421;SDS011;61637;47.760;-122.022;2022-10-12T07:28:03;12.9;;;2.3;;
73421;SDS011;61637;47.760;-122.022;2022-10-12T07:30:01;11.8;;;2.2;;
73421;SDS011;61637;47.760;-122.022;2022-10-12T07:32:01;14.9;;;2.7;;
73421;SDS011;61637;47.760;-122.022;2022-10-12T07:34:01;13.2;;;2.5;;
73421;SDS011;61637;47.760;-122.022;2022-10-12T07:36:02;11.8;;;2.2;;
73421;SDS011;61637;47.760;-122.022;2022-10-12T07:38:11;18.0;;;2.6;;
73421;SDS011;61637;47.760;-122.022;2022-10-12T07:40:01;11.7;;;2.1;;
73421;SDS011;61637;47.760;-122.022;2022-10-12T07:42:01;13.2;;;2.4;;
73421;SDS011;61637;47.760;-122.022;2022-10-12T07:44:01;15.6;;;2.8;;
73421;SDS011;61637;47.760;-122.022;2022-10-12T07:46:03;12.8;;;2.6;;
73421;SDS011;61637;47.760;-122.022;2022-10-12T07:48:08;14.1;;;2.4;;
73421;SDS011;61637;47.760;-122.022;2022-10-12T07:50:01;14.2;;;2.8;;
73421;SDS011;61637;47.760;-122.022;2022-10-12T07:52:01;12.8;;;2.5;;
73421;SDS011;61637;47.760;-122.022;2022-10-12T07:54:01;14.8;;;2.5;;
73421;SDS011;61637;47.760;-122.022;2022-10-12T07:56:03;13.6;;;2.5;;
73421;SDS011;61637;47.760;-122.022;2022-10-12T07:58:05;15.3;;;2.3;;
73421;SDS011;61637;47.760;-122.022;2022-10-12T08:00:01;11.9;;;2.5;;
73421;SDS011;61637;47.760;-122.022;2022-10-12T08:02:01;15.4;;;2.5;;
73421;SDS011;61637;47.760;-122.022;2022-10-12T08:04:01;14.7;;;2.6;;
73421;SDS011;61637;47.760;-122.022;2022-10-12T08:06:07;13.5;;;2.5;;
73421;SDS011;61637;47.760;-122.022;2022-10-12T08:08:05;17.1;;;2.7;;
73421;SDS011;61637;47.760;-122.022;2022-10-12T08:10:01;16.1;;;2.9;;
73421;SDS011;61637;47.760;-122.022;2022-10-12T08:12:01;13.9;;;2.4;;
73421;SDS011;61637;47.760;-122.022;2022-10-12T08:14:01;12.4;;;2.4;;
73421;SDS011;61637;47.760;-122.022;2022-10-12T08:16:01;14.5;;;2.5;;
73421;SDS011;61637;47.760;-122.022;2022-10-12T08:18:11;13.0;;;2.5;;
73421;SDS011;61637;47.760;-122.022;2022-10-12T08:20:02;13.2;;;2.3;;
73421;SDS011;61637;47.760;-122.022;2022-10-12T08:22:01;13.8;;;2.3;;
73421;SDS011;61637;47.760;-122.022;2022-10-12T08:24:01;13.8;;;2.2;;
73421;SDS011;61637;47.760;-122.022;2022-10-12T08:26:02;15.0;;;2.2;;
73421;SDS011;61637;47.760;-122.022;2022-10-12T08:28:10;11.8;;;2.0;;
73421;SDS011;61637;47.760;-122.022;2022-10-12T08:30:02;16.7;;;2.5;;
73421;SDS011;61637;47.760;-122.022;2022-10-12T08:32:00;11.8;;;2.6;;
73421;SDS011;61637;47.760;-122.022;2022-10-12T08:34:01;14.8;;;2.3;;
73421;SDS011;61637;47.760;-122.022;2022-10-12T08:36:02;13.4;;;2.3;;
73421;SDS011;61637;47.760;-122.022;2022-10-12T08:38:03;11.3;;;2.5;;
73421;SDS011;61637;47.760;-122.022;2022-10-12T08:40:01;10.8;;;2.2;;
73421;SDS011;61637;47.760;-122.022;2022-10-12T08:42:12;11.6;;;2.6;;
73421;SDS011;61637;47.760;-122.022;2022-10-12T08:46:02;11.6;;;2.4;;
73421;SDS011;61637;47.760;-122.022;2022-10-12T08:48:07;10.0;;;2.1;;
73421;SDS011;61637;47.760;-122.022;2022-10-12T08:50:02;13.0;;;2.5;;
73421;SDS011;61637;47.760;-122.022;2022-10-12T08:52:03;15.7;;;2.4;;
73421;SDS011;61637;47.760;-122.022;2022-10-12T08:54:04;17.0;;;2.5;;
73421;SDS011;61637;47.760;-122.022;2022-10-12T08:56:01;10.3;;;1.9;;
73421;SDS011;61637;47.760;-122.022;2022-10-12T08:58:14;13.0;;;2.5;;
73421;SDS011;61637;47.760;-122.022;2022-10-12T09:00:01;13.7;;;2.4;;
73421;SDS011;61637;47.760;-122.022;2022-10-12T09:02:12;14.4;;;2.7;;
73421;SDS011;61637;47.760;-122.022;2022-10-12T09:06:09;10.2;;;2.4;;
73421;SDS011;61637;47.760;-122.022;2022-10-12T09:08:12;11.1;;;2.1;;
73421;SDS011;61637;47.760;-122.022;2022-10-12T09:10:15;13.1;;;2.3;;
73421;SDS011;61637;47.760;-122.022;2022-10-12T09:12:11;12.9;;;2.2;;
73421;SDS011;61637;47.760;-122.022;2022-10-12T09:14:05;12.8;;;2.4;;
73421;SDS011;61637;47.760;-122.022;2022-10-12T09:16:03;13.6;;;2.3;;
73421;SDS011;61637;47.760;-122.022;2022-10-12T09:18:04;14.4;;;2.4;;
73421;SDS011;61637;47.760;-122.022;2022-10-12T09:20:05;12.5;;;2.4;;
73421;SDS011;61637;47.760;-122.022;2022-10-12T09:22:02;12.7;;;2.7;;
73421;SDS011;61637;47.760;-122.022;2022-10-12T09:24:02;12.3;;;2.3;;
73421;SDS011;61637;47.760;-122.022;2022-10-12T09:26:10;12.3;;;2.4;;
73421;SDS011;61637;47.760;-122.022;2022-10-12T09:28:12;13.8;;;2.5;;
73421;SDS011;61637;47.760;-122.022;2022-10-12T09:30:05;12.9;;;2.3;;
73421;SDS011;61637;47.760;-122.022;2022-10-12T09:32:09;14.0;;;2.6;;
73421;SDS011;61637;47.760;-122.022;2022-10-12T09:34:04;15.0;;;2.6;;
73421;SDS011;61637;47.760;-122.022;2022-10-12T09:36:01;12.4;;;2.4;;
73421;SDS011;61637;47.760;-122.022;2022-10-12T09:38:02;16.1;;;2.6;;
73421;SDS011;61637;47.760;-122.022;2022-10-12T09:40:01;13.8;;;2.3;;
73421;SDS011;61637;47.760;-122.022;2022-10-12T09:42:02;13.8;;;2.4;;
73421;SDS011;61637;47.760;-122.022;2022-10-12T09:44:03;11.1;;;2.2;;
73421;SDS011;61637;47.760;-122.022;2022-10-12T09:46:04;12.4;;;2.4;;
73421;SDS011;61637;47.760;-122.022;2022-10-12T09:48:12;10.3;;;2.4;;
73421;SDS011;61637;47.760;-122.022;2022-10-12T09:50:03;12.1;;;2.4;;
73421;SDS011;61637;47.760;-122.022;2022-10-12T09:52:01;14.0;;;2.6;;
73421;SDS011;61637;47.760;-122.022;2022-10-12T09:54:03;12.3;;;2.4;;
73421;SDS011;61637;47.760;-122.022;2022-10-12T09:56:04;12.3;;;2.4;;
73421;SDS011;61637;47.760;-122.022;2022-10-12T09:58:01;15.2;;;2.9;;
73421;SDS011;61637;47.760;-122.022;2022-10-12T10:00:04;11.1;;;2.5;;
73421;SDS011;61637;47.760;-122.022;2022-10-12T10:02:13;12.4;;;2.5;;
73421;SDS011;61637;47.760;-122.022;2022-10-12T10:06:03;17.2;;;2.8;;
73421;SDS011;61637;47.760;-122.022;2022-10-12T10:08:16;14.4;;;2.6;;
73421;SDS011;61637;47.760;-122.022;2022-10-12T10:10:13;15.2;;;2.5;;
73421;SDS011;61637;47.760;-122.022;2022-10-12T10:12:12;12.4;;;2.5;;
73421;SDS011;61637;47.760;-122.022;2022-10-12T10:14:01;11.1;;;2.5;;
73421;SDS011;61637;47.760;-122.022;2022-10-12T10:16:03;15.0;;;2.4;;
73421;SDS011;61637;47.760;-122.022;2022-10-12T10:18:03;12.5;;;2.7;;
73421;SDS011;61637;47.760;-122.022;2022-10-12T10:20:04;12.4;;;2.3;;
73421;SDS011;61637;47.760;-122.022;2022-10-12T10:22:04;16.7;;;2.5;;
73421;SDS011;61637;47.760;-122.022;2022-10-12T10:24:03;9.8;;;2.5;;
73421;SDS011;61637;47.760;-122.022;2022-10-12T10:26:05;12.4;;;2.6;;
73421;SDS011;61637;47.760;-122.022;2022-10-12T10:28:19;11.6;;;2.6;;
73421;SDS011;61637;47.760;-122.022;2022-10-12T10:30:20;14.6;;;2.7;;
73421;SDS011;61637;47.760;-122.022;2022-10-12T10:32:14;13.3;;;2.6;;
73421;SDS011;61637;47.760;-122.022;2022-10-12T10:36:03;11.6;;;2.4;;
73421;SDS011;61637;47.760;-122.022;2022-10-12T10:38:01;10.3;;;2.6;;
73421;SDS011;61637;47.760;-122.022;2022-10-12T10:40:02;14.9;;;2.8;;
73421;SDS011;61637;47.760;-122.022;2022-10-12T10:42:09;10.4;;;2.4;;
73421;SDS011;61637;47.760;-122.022;2022-10-12T10:44:01;10.4;;;2.4;;
73421;SDS011;61637;47.760;-122.022;2022-10-12T10:46:02;14.2;;;2.5;;
73421;SDS011;61637;47.760;-122.022;2022-10-12T10:48:07;12.5;;;2.6;;
73421;SDS011;61637;47.760;-122.022;2022-10-12T10:50:02;14.3;;;2.6;;
73421;SDS011;61637;47.760;-122.022;2022-10-12T10:52:02;15.0;;;2.7;;
73421;SDS011;61637;47.760;-122.022;2022-10-12T10:56:04;12.9;;;3.0;;
73421;SDS011;61637;47.760;-122.022;2022-10-12T10:58:04;13.5;;;3.2;;
73421;SDS011;61637;47.760;-122.022;2022-10-12T11:00:08;15.2;;;3.6;;
73421;SDS011;61637;47.760;-122.022;2022-10-12T11:02:07;13.0;;;3.3;;
73421;SDS011;61637;47.760;-122.022;2022-10-12T11:06:17;13.6;;;3.1;;
73421;SDS011;61637;47.760;-122.022;2022-10-12T11:08:04;15.3;;;3.5;;
73421;SDS011;61637;47.760;-122.022;2022-10-12T11:10:03;13.2;;;3.1;;
73421;SDS011;61637;47.760;-122.022;2022-10-12T11:12:04;10.8;;;2.8;;
73421;SDS011;61637;47.760;-122.022;2022-10-12T11:16:06;13.1;;;3.2;;
73421;SDS011;61637;47.760;-122.022;2022-10-12T11:18:10;14.8;;;3.2;;
73421;SDS011;61637;47.760;-122.022;2022-10-12T11:20:10;13.0;;;3.2;;
73421;SDS011;61637;47.760;-122.022;2022-10-12T11:22:04;12.6;;;3.2;;
73421;SDS011;61637;47.760;-122.022;2022-10-12T11:26:07;13.5;;;3.1;;
73421;SDS011;61637;47.760;-122.022;2022-10-12T11:28:01;13.6;;;3.0;;
73421;SDS011;61637;47.760;-122.022;2022-10-12T11:30:05;unknown;;;unknown;;
73421;SDS011;61637;47.760;-122.022;2022-10-12T11:32:04;11.8;;;2.9;;
73421;SDS011;61637;47.760;-122.022;2022-10-12T11:36:02;17.3;;;2.9;;
73421;SDS011;61637;47.760;-122.022;2022-10-12T11:38:04;13.1;;;2.6;;
73421;SDS011;61637;47.760;-122.022;2022-10-12T11:40:02;13.7;;;3.0;;
73421;SDS011;61637;47.760;-122.022;2022-10-12T11:42:03;11.2;;;2.9;;
73421;SDS011;61637;47.760;-122.022;2022-10-12T11:46:03;15.6;;;2.7;;
73421;SDS011;61637;47.760;-122.022;2022-10-12T11:48:04;14.3;;;2.6;;
73421;SDS011;61637;47.760;-122.022;2022-10-12T11:50:04;12.7;;;2.8;;
73421;SDS011;61637;47.760;-122.022;2022-10-12T11:52:07;12.9;;;2.7;;
73421;SDS011;61637;47.760;-122.022;2022-10-12T11:56:08;11.8;;;2.7;;
73421;SDS011;61637;47.760;-122.022;2022-10-12T11:58:06;11.8;;;2.7;;
73421;SDS011;61637;47.760;-122.022;2022-10-12T12:00:05;12.5;;;3.3;;
73421;SDS011;61637;47.760;-122.022;2022-10-12T12:02:09;15.9;;;3.6;;
73421;SDS011;61637;47.760;-122.022;2022-10-12T12:04:11;14.3;;;3.3;;
73421;SDS011;61637;47.760;-122.022;2022-10-12T12:08:01;15.3;;;3.6;;
73421;SDS011;61637;47.760;-122.022;2022-10-12T12:12:13;14.2;;;3.6;;
73421;SDS011;61637;47.760;-122.022;2022-10-12T12:18:10;12.7;;;3.7;;
73421;SDS011;61637;47.760;-122.022;2022-10-12T12:20:21;11.2;;;3.6;;